• Join FlightAware (Why Join?)
  • Login
  • US Flag 
03:18AM EDT


 

Airport Tracker/Info


-or-


 

Live Flight TrackerFlight Track Log ✈ LXJ549 ✈ 05-Jul-2013 ✈ KBML - KTEB

Flight Track Log - Related Links

Times and Time Zones

All times are in EDT time to prevent confusion due to time zone crossing. See the LXJ549 flight status page for this flight to view local times or setup timezone preferences in your user account.

Time Position Orientation Groundspeed Altitude Reporting Facility
EDT Latitude Longitude Course Direction KTS MPH feet Rate Location/Type
11:28AM 44.3778 -71.2231 196° South 412 474 11,700  Level Boston Center
11:29AM 44.2969 -71.2653 201° Southwest 353 406 14,500 3,300 Climbing Boston Center
11:30AM 44.2294 -71.3797 231° Southwest 311 358 18,400 3,060 Climbing Boston Center
11:31AM 44.1739 -71.4675 229° Southwest 327 376 21,300 3,360 Climbing Boston Center
11:32AM 44.1000 -71.5958 231° Southwest 334 384 25,800 3,000 Climbing Boston Center
11:33AM 44.0094 -71.3762 196° South  Level FlightAware Approximate
11:33AM 44.0361 -71.7036 231° Southwest 341 392 27,400  Level Boston Center
11:34AM 43.9639 -71.8228 230° Southwest 377 434 28,000 300 Climbing Boston Center
11:35AM 43.8894 -71.9533 232° Southwest 410 472 28,000  Level Boston Center
11:36AM 43.8128 -72.0775 229° Southwest 432 497 28,000  Level Boston Center
11:37AM 43.7381 -72.2103 232° Southwest 432 497 28,000  Level Boston Center
11:38AM 43.6611 -72.3339 229° Southwest 432 497 28,000  Level Boston Center
11:39AM 43.5861 -72.4572 230° Southwest 426 490 28,000  Level Boston Center
11:40AM 43.5089 -72.5833 230° Southwest 426 490 28,000 -780 Level Boston Center
11:41AM 43.4317 -72.7117 230° Southwest 431 496 26,500 -1,500 Descending Boston Center
11:42AM 43.3564 -72.8342 230° Southwest 431 496 25,100 -1,260 Descending Boston Center
11:43AM 43.2892 -72.9450 230° Southwest 426 490 24,000 -600 Descending Boston Center
11:44AM 43.2197 -73.0611 231° Southwest 421 484 24,000  Level Boston Center
11:45AM 43.1483 -73.1714 228° Southwest 405 466 24,000 -240 Level Boston Center
11:46AM 43.0744 -73.2900 230° Southwest 405 466 23,600 -1,500 Descending Boston Center
11:47AM 42.9903 -73.4164 228° Southwest 410 472 21,100 -2,040 Descending Boston Center
11:48AM 42.9331 -73.5092 230° Southwest 399 459 19,600 -1,860 Descending Boston Center
11:49AM 42.8611 -73.6242 230° Southwest 374 430 17,400 -2,100 Descending Boston Center
11:50AM 42.8017 -73.7192 230° Southwest 374 430 15,500 -1,740 Descending Boston Center
11:51AM 42.7275 -73.8167 224° Southwest 379 436 14,000 -720 Descending Boston Center
11:52AM 42.6144 -73.8592 195° South 350 403 14,000  Level Boston Center
11:53AM 42.5139 -73.9075 200° South 350 403 14,000  Level Boston Center
11:54AM 42.3986 -73.9583 198° South 363 418 14,000  Level Boston Center
11:55AM 42.3292 -74.0100 209° Southwest 363 418 14,000  Level Boston Center
11:56AM 42.2300 -74.1000 214° Southwest 363 418 14,000  Level Boston Center
11:57AM 42.1494 -74.1764 215° Southwest 368 423 14,000  Level Boston Center
11:58AM 42.0611 -74.2381 207° Southwest 363 418 14,000  Level Boston Center
11:59AM 41.9644 -74.2886 201° Southwest 363 418 14,100 -240 Climbing Boston Center
12:00PM 41.8844 -74.3336 203° Southwest 357 411 13,600 -1,140 Descending Boston Center
12:01PM 41.7981 -74.3783 201° Southwest 320 368 11,900 -1,620 Descending Boston Center
12:02PM 41.7350 -74.4153 204° Southwest 288 331 10,400 -1,500 Descending Boston Center
12:03PM 41.6592 -74.4547 201° Southwest 276 318 8,900 -1,440 Descending Boston Center
12:04PM 41.5983 -74.4889 203° Southwest 270 311 7,600 -1,500 Descending Boston Center
12:05PM 41.5244 -74.5336 204° Southwest 270 311 6,000 -900 Descending Boston Center
12:06PM 41.4633 -74.5647 201° Southwest 270 311 5,900 -60 Descending Boston Center
12:08PM 41.3500 -74.6167 199° South 267 307 5,900 -660 Level New York TRACON
12:09PM 41.2667 -74.6000 171° South 263 303 4,200 -900 Descending New York TRACON
12:10PM 41.2167 -74.5333 135° Southeast 272 313 4,100 -60 Descending New York TRACON
12:11PM 41.1833 -74.4500 118° Southeast 282 325 4,100 -60 Level New York TRACON
12:12PM 41.1500 -74.3667 118° Southeast 272 313 4,000 -540 Descending New York TRACON
12:13PM 41.1167 -74.2667 114° Southeast 265 305 3,100 -480 Descending New York TRACON
12:14PM 41.0833 -74.1833 118° Southeast 268 308 3,100 -180 Level New York TRACON
12:15PM 41.0500 -74.1000 118° Southeast 263 303 2,800 -600 Descending New York TRACON
12:16PM 41.0000 -74.0500 143° Southeast 233 268 2,000 -480 Descending New York TRACON
12:17PM 40.9500 -74.0500 180° South 183 211 1,900 -540 Descending New York TRACON
12:18PM 40.9000 -74.0500 180° South 160 184 1,000 -900 Descending New York TRACON
12:20PM 40.8500 -74.0500 149° Southeast  Level FlightAware Approximate